• Join FlightAware (Why Join?)
  • Login
  • US Flag 
05:38AM EDT


 

Airport Tracker/Info


-or-


 

Live Flight TrackerFlight Track Log ✈ EJA341 ✈ 10-May-2013 ✈ T82 - KHOU

Flight Track Log - Related Links

Times and Time Zones

All times are in EDT time to prevent confusion due to time zone crossing. See the EJA341 flight status page for this flight to view local times or setup timezone preferences in your user account.

Time Position Orientation Groundspeed Altitude Reporting Facility
EDT Latitude Longitude Course Direction KTS MPH feet Rate Location/Type
03:17PM 30.1636 -98.8522 123° Southeast 299 344 11,600  Level Houston Center
03:18PM 30.1156 -98.7647 122° Southeast 300 345 16,300 2,820 Climbing Houston Center
03:19PM 30.0636 -98.6644 121° Southeast 361 415 17,500 1,140 Climbing Houston Center
03:20PM 30.0022 -98.5494 122° Southeast 388 447 18,700 1,740 Climbing Houston Center
03:21PM 29.9431 -98.4453 123° Southeast 406 467 21,100 2,040 Climbing Houston Center
03:22PM 29.8544 -98.3406 134° Southeast 413 475 23,000 1,920 Climbing Houston Center
03:23PM 29.7667 -98.2386 135° Southeast 442 509 25,100 1,920 Climbing Houston Center
03:24PM 29.6806 -98.1356 134° Southeast 445 512 27,000 900 Climbing Houston Center
03:25PM 29.5836 -98.0178 133° Southeast 468 539 27,000  Level Houston Center
03:26PM 29.5150 -97.8867 121° Southeast 478 550 27,000  Level Houston Center
03:27PM 29.4497 -97.7556 120° Southeast 485 558 27,000  Level Houston Center
03:28PM 29.3844 -97.6214 119° Southeast 485 558 27,000  Level Houston Center
03:29PM 29.3358 -97.4772 111° Southeast 491 565 27,000  Level Houston Center
03:30PM 29.3244 -97.3181 95° East 509 586 27,000 -540 Level Houston Center
03:31PM 29.3231 -97.1292 90° East 499 574 25,900 -1,260 Descending Houston Center
03:32PM 29.3203 -96.9778 91° East 482 555 24,400 -1,620 Descending Houston Center
03:33PM 29.3181 -96.8353 91° East 469 540 22,600 -1,980 Descending Houston Center
03:34PM 29.3156 -96.6689 91° East 456 525 20,400 -1,980 Descending Houston Center
03:35PM 29.3131 -96.5308 91° East 439 505 18,600 -1,800 Descending Houston Center
03:36PM 29.3114 -96.4731 92° East 432 497 17,800 -1,800 Descending Houston Center
03:36PM 29.3108 -96.3961 90° East 429 494 16,800 -1,800 Descending Houston Center
03:37PM 29.3094 -96.3247 91° East 425 489 15,800 -1,800 Descending Houston Center
03:37PM 29.3083 -96.2622 91° East 423 487 15,000 -1,800 Descending Houston Center
03:38PM 29.3058 -96.1864 92° East 403 464 14,000 -1,680 Descending Houston Center
03:38PM 29.3058 -96.1369 90° East 400 460 13,300 -1,560 Descending Houston Center
03:39PM 29.3058 -96.0642 90° East 343 395 12,300 -1,260 Descending Houston Center
03:39PM 29.3167 -96.0319 69° East 343 395 12,000 -360 Descending Houston Center
03:40PM 29.3489 -95.9803 54° Northeast 320 368 12,000  Level Houston Center
03:40PM 29.3722 -95.9394 57° Northeast 332 382 12,000 -420 Level Houston Center
03:41PM 29.4056 -95.8850 55° Northeast 336 387 11,600 -1,260 Descending Houston Center
03:42PM 29.4250 -95.8528 55° Northeast 332 382 10,700 -2,280 Descending Houston Center
03:42PM 29.4550 -95.8028 55° Northeast 323 372 9,300 -2,940 Descending Houston Center
03:43PM 29.4825 -95.7564 56° Northeast 306 352 7,700 -2,760 Descending Houston Center
03:43PM 29.5008 -95.7256 56° Northeast 288 331 6,500 -1,680 Descending Houston Center
03:44PM 29.5281 -95.6811 55° Northeast 290 334 6,000 -540 Descending Houston Center
03:44PM 29.5447 -95.6531 56° Northeast 244 281 6,000  Level Houston Center
03:45PM 29.5672 -95.6156 55° Northeast 258 297 6,000  Level Houston Center
03:45PM 29.5867 -95.5833 55° Northeast 250 288 6,000 -120 Level Houston Center
03:46PM 29.6061 -95.5503 56° Northeast 249 287 5,900 -900 Descending Houston Center
03:46PM 29.6250 -95.5186 56° Northeast 247 284 5,100 -1,500 Descending Houston Center
03:47PM 29.6444 -95.4861 55° Northeast 244 281 4,400 -1,200 Descending Houston Center
03:47PM 29.6614 -95.4567 56° Northeast 227 261 3,900 -1,200 Descending Houston Center
03:48PM 29.6803 -95.4267 54° Northeast 232 267 3,200 -1,200 Descending Houston Center
03:48PM 29.6958 -95.3997 56° Northeast 213 245 2,700 -1,080 Descending Houston Center
03:49PM 29.7094 -95.3733 59° Northeast 209 241 2,100 -900 Descending Houston Center
03:49PM 29.7036 -95.3458 104° East 142 163 1,800 -1,020 Descending Houston Center
03:50PM 29.6867 -95.3239 132° Southeast 167 192 1,100 -900 Descending Houston Center
03:50PM 29.6775 -95.3128 134° Southeast 145 167 900 -720 Descending Houston Center
03:51PM 29.6614 -95.2953 137° Southeast 146 168 400 -480 Descending Houston Center
03:52PM 29.6381 -95.2969 184° South 145 167 100 -300 Descending Houston Center